Time;durP1;ratioP1;P1;durP2;ratioP2;P2;SDS_P1;SDS_P2;PMS_P1;PMS_P2;Temp;Humidity;BMP_temperature;BMP_pressure;BME280_temperature;BME280_humidity;BME280_pressure;Samples;Min_cycle;Max_cycle;Signal;HPM_P1;HPM_P2
2021/05/08 00:01:06;;;;;;;6.90;5.70;;;9.10;99.90;;;;;;5031514;28;20626;-84
2021/05/08 00:03:32;;;;;;;8.88;6.47;;;9.00;99.90;;;;;;5033190;28;20657;-83
2021/05/08 00:05:58;;;;;;;6.72;5.80;;;9.00;99.90;;;;;;5041102;28;20199;-83
2021/05/08 00:08:24;;;;;;;7.50;6.30;;;9.00;99.90;;;;;;5067039;28;20160;-83
2021/05/08 00:10:50;;;;;;;8.55;7.03;;;8.90;99.90;;;;;;5076727;28;20195;-83
2021/05/08 00:13:15;;;;;;;8.13;6.90;;;9.00;99.90;;;;;;5057067;28;20255;-84
2021/05/08 00:15:41;;;;;;;10.98;7.10;;;9.00;99.90;;;;;;5051330;28;20175;-84
2021/05/08 00:18:07;;;;;;;8.57;7.78;;;9.00;99.90;;;;;;5052715;28;20222;-84
2021/05/08 00:20:32;;;;;;;9.20;6.90;;;9.00;99.90;;;;;;5052869;28;20191;-84
2021/05/08 00:22:59;;;;;;;8.45;7.00;;;9.00;99.90;;;;;;5057156;28;20175;-83
2021/05/08 00:25:25;;;;;;;11.20;7.32;;;9.00;99.90;;;;;;5064720;28;20188;-83
2021/05/08 00:27:50;;;;;;;8.27;7.00;;;9.00;99.90;;;;;;5079855;28;20167;-83
2021/05/08 00:30:17;;;;;;;9.48;6.93;;;9.10;99.90;;;;;;5054982;28;20168;-83
2021/05/08 00:32:43;;;;;;;7.05;6.45;;;9.10;99.90;;;;;;5054901;28;20179;-84
2021/05/08 00:35:09;;;;;;;8.63;6.95;;;9.10;99.90;;;;;;5056433;28;20513;-83
2021/05/08 00:37:35;;;;;;;8.07;7.30;;;9.10;99.90;;;;;;5054723;28;20238;-84
2021/05/08 00:40:00;;;;;;;7.85;7.05;;;9.20;99.90;;;;;;5054543;28;20207;-83
2021/05/08 00:42:26;;;;;;;9.25;8.25;;;9.20;99.90;;;;;;5055779;28;20171;-84
2021/05/08 00:44:52;;;;;;;13.00;8.68;;;9.20;99.90;;;;;;5055947;28;20229;-83
2021/05/08 00:47:19;;;;;;;7.78;7.05;;;9.30;99.90;;;;;;5054652;28;20214;-84
2021/05/08 00:49:45;;;;;;;7.88;7.13;;;9.50;99.90;;;;;;5055675;28;20589;-83
2021/05/08 00:52:13;;;;;;;8.02;7.32;;;9.60;99.90;;;;;;5054907;28;20206;-83
2021/05/08 00:54:39;;;;;;;9.30;8.38;;;9.70;99.90;;;;;;5055713;28;20171;-84
2021/05/08 00:57:05;;;;;;;10.35;8.25;;;9.80;99.90;;;;;;5055282;28;20197;-84
2021/05/08 00:59:30;;;;;;;8.80;7.90;;;9.80;99.90;;;;;;5055752;28;20172;-84
2021/05/08 01:01:56;;;;;;;15.48;8.55;;;9.80;99.90;;;;;;5055594;28;20168;-84
2021/05/08 01:04:22;;;;;;;9.35;8.40;;;9.90;99.90;;;;;;5055510;28;20160;-84
2021/05/08 01:06:48;;;;;;;9.63;7.85;;;9.90;99.90;;;;;;5054108;28;20172;-84
2021/05/08 01:09:14;;;;;;;8.85;7.95;;;9.90;99.90;;;;;;5055177;28;20250;-84
2021/05/08 01:11:40;;;;;;;11.48;8.63;;;10.00;99.90;;;;;;5053981;28;20167;-84
2021/05/08 01:14:06;;;;;;;12.07;7.68;;;10.10;99.90;;;;;;5037642;28;20178;-83
2021/05/08 01:16:32;;;;;;;9.85;7.90;;;10.10;99.90;;;;;;5053977;28;20268;-84
2021/05/08 01:18:58;;;;;;;9.45;8.57;;;10.10;99.90;;;;;;5054160;28;20270;-84
2021/05/08 01:21:24;;;;;;;8.82;7.38;;;10.10;99.90;;;;;;5054187;28;20294;-84
2021/05/08 01:23:51;;;;;;;10.27;8.43;;;10.20;99.90;;;;;;5054886;28;20533;-84
2021/05/08 01:26:17;;;;;;;15.45;8.40;;;10.20;99.90;;;;;;5054832;28;20187;-84
2021/05/08 01:28:44;;;;;;;9.05;8.23;;;10.10;99.90;;;;;;5037597;28;20176;-84
2021/05/08 01:31:10;;;;;;;10.00;9.10;;;10.10;99.90;;;;;;5054005;28;20192;-84
2021/05/08 01:33:36;;;;;;;11.90;9.38;;;10.10;99.90;;;;;;5054721;28;20258;-84
2021/05/08 01:36:02;;;;;;;11.32;8.68;;;10.00;99.90;;;;;;5054460;28;20605;-84
2021/05/08 01:38:28;;;;;;;10.98;8.05;;;9.90;99.90;;;;;;5053320;28;20651;-84
2021/05/08 01:41:03;;;;;;;8.93;8.05;;;9.80;99.90;;;;;;5053466;28;20179;-84
2021/05/08 01:43:28;;;;;;;11.98;8.43;;;9.70;99.90;;;;;;5053795;28;20624;-84
2021/05/08 01:45:55;;;;;;;9.25;8.32;;;9.60;99.90;;;;;;5053564;28;20175;-84
2021/05/08 01:48:21;;;;;;;10.02;8.98;;;9.60;99.90;;;;;;5054326;28;20258;-84
2021/05/08 01:50:47;;;;;;;10.55;8.20;;;9.50;99.90;;;;;;5054711;28;20245;-84
2021/05/08 01:53:13;;;;;;;11.15;8.65;;;9.50;99.90;;;;;;5053266;28;20616;-84
2021/05/08 01:55:38;;;;;;;10.82;9.10;;;9.50;99.90;;;;;;5054447;28;20306;-83
2021/05/08 01:58:04;;;;;;;13.65;9.10;;;9.50;99.90;;;;;;5052968;28;20191;-83
2021/05/08 02:00:36;;;;;;;12.10;9.00;;;9.50;99.90;;;;;;5053068;28;20221;-83
2021/05/08 02:03:02;;;;;;;10.27;8.88;;;9.50;99.90;;;;;;5053226;28;20506;-83
2021/05/08 02:05:30;;;;;;;9.98;8.45;;;9.60;99.90;;;;;;5054454;28;20636;-84
2021/05/08 02:07:56;;;;;;;14.02;9.05;;;9.60;99.90;;;;;;5052473;28;20628;-83
2021/05/08 02:10:22;;;;;;;12.73;8.13;;;9.60;99.90;;;;;;5052954;28;20532;-83
2021/05/08 02:12:48;;;;;;;9.57;8.68;;;9.50;99.90;;;;;;5054355;28;20599;-83
2021/05/08 02:15:18;;;;;;;11.00;8.10;;;9.60;99.90;;;;;;5054836;28;20262;-83
2021/05/08 02:17:44;;;;;;;12.75;8.60;;;9.50;99.90;;;;;;5052477;28;20227;-83
2021/05/08 02:20:13;;;;;;;8.63;7.60;;;9.40;99.90;;;;;;5054017;28;20204;-84
2021/05/08 02:22:40;;;;;;;14.07;7.70;;;9.50;99.90;;;;;;5053177;28;20258;-83
2021/05/08 02:25:08;;;;;;;12.27;8.80;;;9.50;99.90;;;;;;5054183;28;20166;-84
2021/05/08 02:27:34;;;;;;;10.20;8.05;;;9.50;99.90;;;;;;5054016;28;20175;-84
2021/05/08 02:30:00;;;;;;;16.38;9.13;;;9.70;99.90;;;;;;5052903;28;20179;-83
2021/05/08 02:32:26;;;;;;;8.95;8.00;;;9.80;99.90;;;;;;5054217;28;20225;-84
2021/05/08 02:34:51;;;;;;;10.82;8.32;;;9.90;99.90;;;;;;5061938;28;20263;-83
2021/05/08 02:37:17;;;;;;;11.20;7.32;;;10.00;99.90;;;;;;5072613;28;20214;-83
2021/05/08 02:39:43;;;;;;;10.93;7.90;;;10.00;99.90;;;;;;5077245;28;20187;-84
2021/05/08 02:42:09;;;;;;;13.27;8.15;;;10.00;99.90;;;;;;5052774;28;20167;-83
2021/05/08 02:44:34;;;;;;;11.13;8.10;;;10.10;99.90;;;;;;5053921;28;20186;-84
2021/05/08 02:47:00;;;;;;;12.75;8.32;;;10.10;99.90;;;;;;5035656;28;20175;-83
2021/05/08 02:49:26;;;;;;;12.77;6.90;;;10.10;99.90;;;;;;5052208;28;20195;-84
2021/05/08 02:51:51;;;;;;;12.45;7.22;;;10.20;99.90;;;;;;5056249;28;20191;-84
2021/05/08 02:54:17;;;;;;;14.30;7.32;;;10.20;99.90;;;;;;5063230;28;20178;-83
2021/05/08 02:56:42;;;;;;;16.60;7.68;;;10.20;99.90;;;;;;5057413;28;20593;-83
2021/05/08 02:59:08;;;;;;;9.52;6.95;;;10.30;99.90;;;;;;5052404;28;20520;-83
2021/05/08 03:01:34;;;;;;;9.40;6.32;;;10.20;99.90;;;;;;5051875;28;20174;-83
2021/05/08 03:03:59;;;;;;;13.65;6.93;;;10.20;99.90;;;;;;5053317;28;20175;-83
2021/05/08 03:06:25;;;;;;;8.68;6.93;;;10.20;99.90;;;;;;5053287;28;20210;-84
2021/05/08 03:08:51;;;;;;;9.48;6.70;;;10.10;99.90;;;;;;5053196;28;20195;-83
2021/05/08 03:11:16;;;;;;;9.13;6.95;;;10.10;99.90;;;;;;5035524;28;20210;-84
2021/05/08 03:13:42;;;;;;;14.40;6.32;;;10.00;99.90;;;;;;5052317;28;20214;-84
2021/05/08 03:16:08;;;;;;;12.00;6.38;;;10.00;99.90;;;;;;5051782;28;20635;-84
2021/05/08 03:18:33;;;;;;;11.18;6.43;;;9.90;99.90;;;;;;5051744;28;20183;-84
2021/05/08 03:20:59;;;;;;;9.20;6.43;;;10.00;99.90;;;;;;5053003;28;20178;-84
2021/05/08 03:23:25;;;;;;;7.63;6.50;;;10.00;99.90;;;;;;5053491;28;20171;-84
2021/05/08 03:25:51;;;;;;;8.15;5.97;;;10.10;99.90;;;;;;5052193;28;20689;-84
2021/05/08 03:28:16;;;;;;;7.32;6.13;;;10.10;99.90;;;;;;5053049;28;20171;-84
2021/05/08 03:30:42;;;;;;;7.07;5.85;;;10.10;99.90;;;;;;5051625;28;20624;-83
2021/05/08 03:33:08;;;;;;;12.00;6.28;;;10.10;99.90;;;;;;5053200;28;20636;-84
2021/05/08 03:35:34;;;;;;;11.23;6.07;;;10.20;99.90;;;;;;5052795;28;20175;-83
2021/05/08 03:37:59;;;;;;;9.50;5.82;;;10.30;99.90;;;;;;5035166;28;20203;-84
2021/05/08 03:40:25;;;;;;;12.85;5.90;;;10.20;99.90;;;;;;5053029;28;20632;-84
2021/05/08 03:42:51;;;;;;;10.18;6.38;;;10.30;99.90;;;;;;5052101;28;20195;-84
2021/05/08 03:45:16;;;;;;;10.02;5.13;;;10.30;99.90;;;;;;5052986;28;20270;-83
2021/05/08 03:47:42;;;;;;;9.48;6.07;;;10.30;99.90;;;;;;5052799;28;20214;-84
2021/05/08 03:50:08;;;;;;;12.20;6.35;;;10.30;99.90;;;;;;5051429;28;20171;-84
2021/05/08 03:52:34;;;;;;;10.10;5.35;;;10.30;99.90;;;;;;5053233;28;20164;-84
2021/05/08 03:55:00;;;;;;;12.48;5.55;;;10.40;99.90;;;;;;5035214;28;20713;-83
2021/05/08 03:57:26;;;;;;;12.15;4.95;;;10.30;99.90;;;;;;5052146;28;20553;-83
2021/05/08 03:59:51;;;;;;;8.02;5.25;;;10.40;99.90;;;;;;5035423;28;20279;-82
2021/05/08 04:02:17;;;;;;;9.95;5.53;;;10.40;99.90;;;;;;5036823;28;20199;-83
2021/05/08 04:04:43;;;;;;;10.18;5.45;;;10.40;99.90;;;;;;5054046;28;20174;-83
2021/05/08 04:07:08;;;;;;;9.15;5.88;;;10.40;99.90;;;;;;5056853;28;20183;-83
2021/05/08 04:09:34;;;;;;;9.98;5.15;;;10.50;99.90;;;;;;5055238;28;20179;-84
2021/05/08 04:11:59;;;;;;;10.07;5.35;;;10.50;99.90;;;;;;5056716;28;20523;-84
2021/05/08 04:14:25;;;;;;;14.73;5.18;;;10.50;99.90;;;;;;5055474;28;20180;-83
2021/05/08 04:16:51;;;;;;;11.18;5.30;;;10.50;99.90;;;;;;5038373;28;20571;-83
2021/05/08 04:19:16;;;;;;;8.07;5.15;;;10.60;99.90;;;;;;5056040;28;20175;-83
2021/05/08 04:21:42;;;;;;;5.72;4.63;;;10.70;99.90;;;;;;5054996;28;20171;-82
2021/05/08 04:24:08;;;;;;;8.38;5.57;;;10.70;99.90;;;;;;5056711;28;20250;-83
2021/05/08 04:26:33;;;;;;;6.57;4.32;;;10.80;99.90;;;;;;5056555;28;20177;-83
2021/05/08 04:28:59;;;;;;;7.80;5.15;;;10.80;99.90;;;;;;5055840;28;20210;-83
2021/05/08 04:31:24;;;;;;;6.63;4.90;;;10.90;99.90;;;;;;5056294;28;20199;-82
2021/05/08 04:33:50;;;;;;;7.40;5.50;;;10.80;99.90;;;;;;5055135;28;20715;-83
2021/05/08 04:36:16;;;;;;;9.23;5.38;;;10.90;99.90;;;;;;5054731;28;20211;-83
2021/05/08 04:38:41;;;;;;;5.57;4.68;;;10.90;99.90;;;;;;5054610;28;20186;-84
2021/05/08 04:41:07;;;;;;;7.07;4.88;;;10.90;99.90;;;;;;5054803;28;20171;-83
2021/05/08 04:43:33;;;;;;;9.85;5.03;;;11.00;99.90;;;;;;5054612;28;20179;-83
2021/05/08 04:45:59;;;;;;;9.38;4.60;;;11.00;99.90;;;;;;5054493;28;20175;-83
2021/05/08 04:48:26;;;;;;;15.48;5.38;;;11.10;99.90;;;;;;5055692;28;20190;-83
2021/05/08 04:50:53;;;;;;;5.93;5.00;;;11.10;99.90;;;;;;5054514;28;20202;-83
2021/05/08 04:53:20;;;;;;;9.90;4.68;;;11.10;99.90;;;;;;5037926;28;20182;-83
2021/05/08 04:55:47;;;;;;;11.00;4.65;;;11.20;99.90;;;;;;5055389;28;20168;-83
2021/05/08 04:58:14;;;;;;;5.95;4.25;;;11.20;99.90;;;;;;5054026;28;20252;-83
2021/05/08 05:00:40;;;;;;;6.65;5.00;;;11.20;99.90;;;;;;5054131;28;20186;-83
2021/05/08 05:03:05;;;;;;;8.45;4.80;;;11.10;99.90;;;;;;5058665;28;20186;-83
2021/05/08 05:05:31;;;;;;;9.85;4.53;;;11.20;99.90;;;;;;5069369;28;20180;-82
2021/05/08 05:07:57;;;;;;;6.50;5.40;;;11.30;99.90;;;;;;5079171;28;20231;-83
2021/05/08 05:10:22;;;;;;;8.30;4.60;;;11.30;99.90;;;;;;5058635;28;20237;-83
2021/05/08 05:12:48;;;;;;;11.00;4.95;;;11.30;99.90;;;;;;5055643;28;20201;-83
2021/05/08 05:15:19;;;;;;;12.65;5.15;;;11.30;99.90;;;;;;5055288;28;20175;-83
2021/05/08 05:17:46;;;;;;;7.00;4.45;;;11.30;99.90;;;;;;5054853;28;20229;-83
2021/05/08 05:20:12;;;;;;;5.63;4.28;;;11.40;99.90;;;;;;5041737;28;20520;-83
2021/05/08 05:22:39;;;;;;;10.75;5.03;;;11.50;99.90;;;;;;5062661;28;20171;-83
2021/05/08 05:25:06;;;;;;;7.88;4.43;;;11.60;99.90;;;;;;5079785;28;20148;-81
2021/05/08 05:27:32;;;;;;;7.32;4.82;;;11.60;99.90;;;;;;5055428;28;20214;-82
2021/05/08 05:29:59;;;;;;;7.43;4.85;;;11.60;99.90;;;;;;5055194;28;20616;-81
2021/05/08 05:32:25;;;;;;;7.55;4.43;;;11.80;99.90;;;;;;5053683;28;20728;-82
2021/05/08 05:34:51;;;;;;;6.63;4.55;;;11.80;99.90;;;;;;5054029;28;20163;-83
2021/05/08 05:37:17;;;;;;;5.22;4.72;;;11.80;99.90;;;;;;5054752;28;20203;-83
2021/05/08 05:39:43;;;;;;;5.63;4.15;;;11.80;99.90;;;;;;5055135;28;20182;-83
2021/05/08 05:42:09;;;;;;;6.88;4.28;;;11.80;99.90;;;;;;5055295;28;20163;-83
2021/05/08 05:44:34;;;;;;;9.25;4.53;;;11.80;99.90;;;;;;5056052;28;20620;-83
2021/05/08 05:47:00;;;;;;;7.50;3.97;;;11.90;99.90;;;;;;5055308;28;20268;-84
2021/05/08 05:49:26;;;;;;;6.28;4.30;;;11.80;99.90;;;;;;5055863;28;20164;-83
2021/05/08 05:51:52;;;;;;;13.77;4.35;;;11.80;99.90;;;;;;5054679;28;20169;-83
2021/05/08 05:54:17;;;;;;;7.22;3.90;;;11.80;99.90;;;;;;5055133;28;20179;-83
2021/05/08 05:56:43;;;;;;;10.85;4.15;;;11.70;99.90;;;;;;5053475;28;20245;-82
2021/05/08 05:59:09;;;;;;;9.70;4.38;;;11.70;99.90;;;;;;5054886;28;20184;-83
2021/05/08 06:01:34;;;;;;;6.00;4.10;;;11.70;99.90;;;;;;5054335;28;20168;-83
2021/05/08 06:04:02;;;;;;;10.80;4.03;;;11.90;99.90;;;;;;5060540;28;20529;-82
2021/05/08 06:06:28;;;;;;;6.80;4.25;;;12.00;99.90;;;;;;5055976;28;20188;-83
2021/05/08 06:08:53;;;;;;;9.43;3.88;;;12.10;99.90;;;;;;5040013;28;20247;-83
2021/05/08 06:11:19;;;;;;;5.47;4.43;;;12.10;99.90;;;;;;5038398;28;20179;-83
2021/05/08 06:13:45;;;;;;;5.20;4.25;;;12.10;99.90;;;;;;5035559;28;20185;-82
2021/05/08 06:16:10;;;;;;;9.68;4.00;;;12.20;99.90;;;;;;5035345;28;20255;-83
2021/05/08 06:18:36;;;;;;;7.93;4.45;;;12.20;99.90;;;;;;5053242;28;20179;-82
2021/05/08 06:21:02;;;;;;;6.78;3.92;;;12.00;99.90;;;;;;5054475;28;20516;-83
2021/05/08 06:23:28;;;;;;;6.10;3.83;;;11.90;99.90;;;;;;5054103;28;20225;-82
2021/05/08 06:25:54;;;;;;;7.72;3.92;;;11.90;99.90;;;;;;5053574;28;20179;-82
2021/05/08 06:28:19;;;;;;;5.22;3.70;;;12.00;99.90;;;;;;5053567;28;20594;-83
2021/05/08 06:30:45;;;;;;;7.40;4.00;;;11.90;99.90;;;;;;5056034;28;20690;-84
2021/05/08 06:33:11;;;;;;;12.07;3.97;;;11.90;99.90;;;;;;5066760;28;20254;-82
2021/05/08 06:35:38;;;;;;;8.65;4.53;;;12.00;99.90;;;;;;5065628;28;20171;-83
2021/05/08 06:38:04;;;;;;;11.23;4.05;;;12.10;99.90;;;;;;5068068;28;20191;-83
2021/05/08 06:40:29;;;;;;;8.85;4.18;;;12.10;99.90;;;;;;5067050;28;20175;-82
2021/05/08 06:42:55;;;;;;;5.50;3.97;;;12.20;99.90;;;;;;5066345;28;20163;-83
2021/05/08 06:45:22;;;;;;;9.48;4.22;;;12.30;99.90;;;;;;5060946;28;20187;-83
2021/05/08 06:47:49;;;;;;;7.63;4.50;;;12.30;99.90;;;;;;5053591;28;20183;-82
2021/05/08 06:50:15;;;;;;;5.40;3.40;;;12.30;99.90;;;;;;5053702;28;20167;-83
2021/05/08 06:52:41;;;;;;;5.13;3.65;;;12.20;99.90;;;;;;5053858;28;20171;-82
2021/05/08 06:55:07;;;;;;;7.85;4.20;;;12.10;99.90;;;;;;5055126;28;20620;-82
2021/05/08 06:57:33;;;;;;;10.00;4.20;;;12.10;99.90;;;;;;5053192;28;20195;-82
2021/05/08 06:59:59;;;;;;;10.00;3.67;;;12.20;99.90;;;;;;5053347;28;20171;-83
2021/05/08 07:02:25;;;;;;;7.05;3.95;;;12.30;99.90;;;;;;5055024;28;20537;-84
2021/05/08 07:04:51;;;;;;;5.00;3.50;;;12.40;99.90;;;;;;5055987;28;20167;-83
2021/05/08 07:07:16;;;;;;;8.65;4.07;;;12.40;99.90;;;;;;5053059;28;20182;-83
2021/05/08 07:09:42;;;;;;;8.00;3.45;;;12.40;99.90;;;;;;5053568;28;20550;-83
2021/05/08 07:12:08;;;;;;;8.00;3.72;;;12.40;99.90;;;;;;5053216;28;20175;-83
2021/05/08 07:14:34;;;;;;;8.70;4.18;;;12.50;99.90;;;;;;5054234;28;20225;-83
2021/05/08 07:17:00;;;;;;;12.02;3.92;;;12.50;99.90;;;;;;5036308;28;20199;-83
2021/05/08 07:19:25;;;;;;;6.68;4.47;;;12.60;99.90;;;;;;5053232;28;20183;-83
2021/05/08 07:21:51;;;;;;;8.50;3.50;;;12.70;99.90;;;;;;5052610;28;20182;-84
2021/05/08 07:24:17;;;;;;;6.53;3.60;;;12.80;99.90;;;;;;5052259;28;20193;-83
2021/05/08 07:26:42;;;;;;;9.30;4.03;;;12.80;99.90;;;;;;5053000;28;20187;-83
2021/05/08 07:29:08;;;;;;;12.68;4.05;;;12.80;99.90;;;;;;5051851;28;20164;-84
2021/05/08 07:31:33;;;;;;;5.93;4.28;;;12.70;99.90;;;;;;5054235;28;20176;-84
2021/05/08 07:33:59;;;;;;;8.23;4.07;;;12.50;99.90;;;;;;5061947;28;20187;-84
2021/05/08 07:36:25;;;;;;;8.63;3.78;;;12.40;99.90;;;;;;5061864;28;20203;-83
2021/05/08 07:38:51;;;;;;;6.82;3.15;;;12.40;99.90;;;;;;5064836;28;20186;-83
2021/05/08 07:41:17;;;;;;;5.63;4.10;;;12.40;99.90;;;;;;5056176;28;20261;-84
2021/05/08 07:43:43;;;;;;;9.85;3.85;;;12.30;99.90;;;;;;5057422;28;20182;-84
2021/05/08 07:46:08;;;;;;;5.25;3.67;;;12.50;99.90;;;;;;5055683;28;20176;-84
2021/05/08 07:48:34;;;;;;;6.47;3.88;;;12.70;99.90;;;;;;5039454;28;20624;-83
2021/05/08 07:51:00;;;;;;;4.03;3.13;;;12.70;99.90;;;;;;5060924;28;20163;-84
2021/05/08 07:53:25;;;;;;;3.20;2.72;;;12.90;99.90;;;;;;5060740;28;20164;-83
2021/05/08 07:55:51;;;;;;;6.25;2.63;;;13.10;99.90;;;;;;5067445;28;20198;-83
2021/05/08 07:58:17;;;;;;;5.43;3.22;;;13.20;99.90;;;;;;5058461;28;20207;-83
2021/05/08 08:00:42;;;;;;;6.38;2.60;;;13.20;99.90;;;;;;5048337;28;20179;-84
2021/05/08 08:03:08;;;;;;;6.97;2.70;;;13.30;99.90;;;;;;5054455;28;20217;-85
2021/05/08 08:05:33;;;;;;;4.40;2.80;;;13.20;99.90;;;;;;5055961;28;20269;-87
2021/05/08 08:07:59;;;;;;;3.90;2.53;;;13.20;99.90;;;;;;5042205;28;20179;-88
2021/05/08 08:10:25;;;;;;;4.43;2.40;;;13.20;99.90;;;;;;5069279;28;20590;-87
2021/05/08 08:12:50;;;;;;;4.07;2.63;;;13.20;99.90;;;;;;5058189;28;20180;-87
2021/05/08 08:15:17;;;;;;;4.63;2.38;;;13.10;99.90;;;;;;5056424;28;20251;-88
2021/05/08 08:17:43;;;;;;;4.65;2.47;;;12.90;99.90;;;;;;5056342;28;20282;-87
2021/05/08 08:20:11;;;;;;;3.40;2.30;;;12.60;99.90;;;;;;5058905;28;20219;-89
2021/05/08 08:22:37;;;;;;;4.97;3.03;;;12.50;99.90;;;;;;5059143;28;20617;-88
2021/05/08 08:25:04;;;;;;;2.53;2.20;;;12.50;99.90;;;;;;5057046;28;20238;-87
2021/05/08 08:27:30;;;;;;;3.00;2.22;;;12.60;99.90;;;;;;5043643;28;20175;-88
2021/05/08 08:29:56;;;;;;;4.47;2.22;;;12.60;99.90;;;;;;5039847;28;20601;-89
2021/05/08 08:32:21;;;;;;;6.30;2.65;;;12.60;99.90;;;;;;5024838;28;20230;-88
2021/05/08 08:34:47;;;;;;;4.53;2.13;;;12.60;99.90;;;;;;5053895;28;20541;-89
2021/05/08 08:37:13;;;;;;;7.00;2.67;;;12.60;99.90;;;;;;5034679;28;20191;-89
2021/05/08 08:39:38;;;;;;;2.55;1.85;;;12.50;99.90;;;;;;5052047;28;20710;-85
2021/05/08 08:42:09;;;;;;;3.25;1.88;;;12.40;99.90;;;;;;5019088;28;20246;-86
2021/05/08 08:44:36;;;;;;;6.78;2.53;;;12.40;99.90;;;;;;5041216;28;20187;-87
2021/05/08 08:47:03;;;;;;;6.97;2.40;;;12.50;99.90;;;;;;5049845;28;20264;-87
2021/05/08 08:49:29;;;;;;;4.30;2.20;;;12.40;99.90;;;;;;5061050;28;20174;-88
2021/05/08 08:51:55;;;;;;;6.25;2.42;;;12.50;99.90;;;;;;5064577;28;20174;-88
2021/05/08 08:54:21;;;;;;;3.97;2.10;;;12.60;99.90;;;;;;5055021;28;20172;-87
2021/05/08 08:56:49;;;;;;;7.63;2.30;;;12.70;99.90;;;;;;5039614;28;20234;-87
2021/05/08 08:59:26;;;;;;;5.65;2.70;;;12.80;99.90;;;;;;5057350;28;20236;-88
2021/05/08 09:01:52;;;;;;;4.97;2.13;;;13.00;99.90;;;;;;5057319;28;20221;-88
2021/05/08 09:04:18;;;;;;;2.70;2.13;;;13.20;99.90;;;;;;5055493;28;20634;-87
2021/05/08 09:06:46;;;;;;;4.00;2.20;;;13.40;99.90;;;;;;5055797;28;20206;-87
2021/05/08 09:09:14;;;;;;;3.85;2.85;;;13.40;99.90;;;;;;5055094;28;20500;-88
2021/05/08 09:11:55;;;;;;;9.07;2.35;;;13.50;99.90;;;;;;5050686;28;20207;-88
2021/05/08 09:14:25;;;;;;;2.85;2.28;;;13.20;99.90;;;;;;5056359;28;20254;-87
2021/05/08 09:17:14;;;;;;;5.32;2.58;;;12.90;99.90;;;;;;5055065;28;20226;-88
2021/05/08 09:19:40;;;;;;;6.85;2.58;;;12.70;99.90;;;;;;5057195;28;20183;-89
2021/05/08 09:22:27;;;;;;;4.97;2.40;;;12.60;99.90;;;;;;5059371;28;20195;-88
2021/05/08 09:24:58;;;;;;;3.80;2.80;;;12.60;99.90;;;;;;5042946;28;20317;-87
2021/05/08 09:27:38;;;;;;;2.85;2.60;;;12.50;99.90;;;;;;5056273;28;20168;-89
2021/05/08 09:30:08;;;;;;;5.00;2.72;;;12.30;99.90;;;;;;5056442;28;20231;-92
2021/05/08 09:32:38;;;;;;;4.57;2.80;;;12.00;99.90;;;;;;5053066;28;20219;-92
2021/05/08 09:35:07;;;;;;;2.58;2.38;;;12.00;99.90;;;;;;5048074;28;20525;-91
2021/05/08 09:37:33;;;;;;;6.72;2.47;;;12.00;99.90;;;;;;5046642;28;20753;-93
2021/05/08 09:40:27;;;;;;;6.47;3.20;;;12.10;99.90;;;;;;5055897;28;20187;-92
2021/05/08 09:42:57;;;;;;;5.00;3.53;;;12.10;99.90;;;;;;5084073;28;20161;-93
2021/05/08 09:45:25;;;;;;;2.90;2.63;;;12.10;99.90;;;;;;5047605;28;20256;-90
2021/05/08 09:47:52;;;;;;;4.03;2.85;;;12.10;99.90;;;;;;5026033;28;20208;-90
2021/05/08 09:50:25;;;;;;;4.13;2.92;;;11.90;99.90;;;;;;5068349;28;20168;-89
2021/05/08 09:52:56;;;;;;;3.75;2.85;;;11.80;99.90;;;;;;5078297;28;20176;-88
2021/05/08 09:55:25;;;;;;;4.43;3.10;;;11.90;99.90;;;;;;5065518;28;20171;-89
2021/05/08 09:58:06;;;;;;;5.88;3.03;;;11.90;99.90;;;;;;5055273;28;20233;-89
2021/05/08 10:00:40;;;;;;;3.53;3.22;;;12.00;99.90;;;;;;5059066;28;20190;-89
2021/05/08 10:03:11;;;;;;;3.50;3.20;;;12.00;99.90;;;;;;5073160;28;20155;-89
2021/05/08 10:05:42;;;;;;;3.47;2.80;;;12.10;99.90;;;;;;5072357;28;20172;-92
2021/05/08 10:08:09;;;;;;;3.60;2.50;;;12.30;99.90;;;;;;5061760;28;20191;-88
2021/05/08 10:10:35;;;;;;;3.55;3.00;;;12.50;99.90;;;;;;5046302;28;20168;-89
2021/05/08 10:13:09;;;;;;;5.10;2.75;;;12.70;99.90;;;;;;5061771;28;20167;-88
2021/05/08 10:15:37;;;;;;;7.93;2.70;;;13.00;99.90;;;;;;5046898;28;20180;-90
2021/05/08 10:18:05;;;;;;;5.10;3.00;;;13.10;99.90;;;;;;5086875;28;20316;-87
2021/05/08 10:20:32;;;;;;;3.88;2.95;;;13.10;99.90;;;;;;5067035;28;20186;-87
2021/05/08 10:23:04;;;;;;;4.32;3.15;;;13.10;99.90;;;;;;5075570;28;20188;-94
2021/05/08 10:25:30;;;;;;;3.88;3.28;;;13.00;99.90;;;;;;5041016;28;20266;-88
2021/05/08 10:27:55;;;;;;;4.00;3.20;;;12.90;99.90;;;;;;5043339;28;20594;-88
2021/05/08 10:30:26;;;;;;;4.95;3.20;;;12.60;99.90;;;;;;5055005;28;20225;-89
2021/05/08 10:32:52;;;;;;;10.75;3.42;;;12.60;99.90;;;;;;5047710;28;20202;-90
2021/05/08 10:35:44;;;;;;;3.03;2.83;;;12.60;99.90;;;;;;5047837;28;20180;-89
2021/05/08 10:38:22;;;;;;;3.55;2.88;;;12.70;99.90;;;;;;5057690;28;20191;-90
2021/05/08 10:41:00;;;;;;;7.22;3.35;;;12.70;99.90;;;;;;5053684;28;20224;-89
2021/05/08 10:43:42;;;;;;;4.18;3.28;;;12.70;99.90;;;;;;5050503;28;20179;-88
2021/05/08 10:46:12;;;;;;;3.88;3.17;;;12.70;99.90;;;;;;5049817;28;20180;-89
2021/05/08 10:48:38;;;;;;;5.15;3.10;;;12.70;99.90;;;;;;5053122;28;20195;-90
2021/05/08 10:51:05;;;;;;;4.00;3.67;;;12.70;99.90;;;;;;5087333;28;20195;-88
2021/05/08 10:53:42;;;;;;;4.43;3.38;;;12.70;99.90;;;;;;5053131;28;20632;-87
2021/05/08 10:56:48;;;;;;;7.50;3.55;;;12.80;99.90;;;;;;5047390;28;20608;-87
2021/05/08 10:59:14;;;;;;;3.17;2.88;;;13.00;99.90;;;;;;5029405;28;20188;-88
2021/05/08 11:01:44;;;;;;;4.03;3.03;;;13.10;99.90;;;;;;5031730;28;20315;-88
2021/05/08 11:04:11;;;;;;;8.43;3.25;;;13.10;99.90;;;;;;5058940;28;20184;-86
2021/05/08 11:06:36;;;;;;;6.40;2.80;;;13.10;99.90;;;;;;5054622;28;20167;-87
2021/05/08 11:09:04;;;;;;;5.03;3.40;;;13.10;99.90;;;;;;5071815;28;20252;-88
2021/05/08 11:11:47;;;;;;;4.50;3.22;;;13.20;99.90;;;;;;5090907;28;20164;-89
2021/05/08 11:14:13;;;;;;;3.40;2.92;;;13.40;99.90;;;;;;5068432;28;20163;-90
2021/05/08 11:16:54;;;;;;;4.85;2.90;;;13.60;99.90;;;;;;5071471;28;20199;-89
2021/05/08 11:19:22;;;;;;;3.47;2.78;;;13.70;99.90;;;;;;5076858;28;20191;-90
2021/05/08 11:21:48;;;;;;;3.60;2.55;;;13.60;99.90;;;;;;5060426;28;20213;-92
2021/05/08 11:24:32;;;;;;;3.45;2.58;;;13.70;99.90;;;;;;5044930;28;20217;-87
2021/05/08 11:26:58;;;;;;;3.38;2.78;;;13.80;99.90;;;;;;5035100;28;20595;-88
2021/05/08 11:29:31;;;;;;;3.08;2.20;;;14.00;99.90;;;;;;5046450;28;20172;-87
2021/05/08 11:32:04;;;;;;;3.03;2.40;;;14.00;99.90;;;;;;5047430;28;20178;-88
2021/05/08 11:34:32;;;;;;;2.92;2.45;;;14.00;99.90;;;;;;5051230;28;20195;-87
2021/05/08 11:37:06;;;;;;;3.13;2.50;;;14.00;99.90;;;;;;5053313;28;20252;-88
2021/05/08 11:39:37;;;;;;;3.72;2.30;;;14.20;99.90;;;;;;5053016;28;20174;-87
2021/05/08 11:42:11;;;;;;;5.97;2.00;;;14.40;99.90;;;;;;5054700;28;20266;-88
2021/05/08 11:44:38;;;;;;;3.58;2.55;;;14.40;99.90;;;;;;5053064;28;20188;-88
2021/05/08 11:47:36;;;;;;;2.40;2.15;;;14.40;99.90;;;;;;5038282;28;20184;-88
2021/05/08 11:50:07;;;;;;;2.38;2.20;;;14.80;99.90;;;;;;5050494;28;20180;-87
2021/05/08 11:52:38;;;;;;;2.40;1.80;;;15.20;99.90;;;;;;5050449;28;20210;-86
2021/05/08 11:55:06;;;;;;;4.68;2.00;;;15.60;99.90;;;;;;5052800;28;20574;-89
2021/05/08 11:57:32;;;;;;;2.67;1.98;;;15.80;99.90;;;;;;5053596;28;20195;-89
2021/05/08 11:59:58;;;;;;;5.82;2.47;;;16.00;99.90;;;;;;5035818;28;20191;-89
2021/05/08 12:02:25;;;;;;;4.50;2.17;;;16.20;99.90;;;;;;5034324;28;20180;-86
2021/05/08 12:04:58;;;;;;;4.90;3.00;;;16.00;99.90;;;;;;5047863;28;20175;-88
2021/05/08 12:07:29;;;;;;;7.30;2.47;;;16.00;99.90;;;;;;5063975;28;20178;-88
2021/05/08 12:10:20;;;;;;;5.20;1.98;;;16.10;99.90;;;;;;5052070;28;20164;-88
2021/05/08 12:12:52;;;;;;;5.78;2.40;;;16.30;99.90;;;;;;5053258;28;20176;-88
2021/05/08 12:15:35;;;;;;;6.20;2.55;;;16.40;99.90;;;;;;5051963;28;20192;-87
2021/05/08 12:18:04;;;;;;;3.63;2.17;;;16.50;99.90;;;;;;5053947;28;20370;-86
2021/05/08 12:20:32;;;;;;;3.63;2.90;;;16.60;99.90;;;;;;5040773;28;20184;-88
2021/05/08 12:23:02;;;;;;;3.70;2.28;;;16.70;99.90;;;;;;5051844;28;20175;-89
2021/05/08 12:25:28;;;;;;;8.50;2.72;;;16.90;99.90;;;;;;5040180;28;20187;-89
2021/05/08 12:28:14;;;;;;;6.68;2.35;;;17.00;99.90;;;;;;5057742;28;20183;-84
2021/05/08 12:30:42;;;;;;;2.83;2.20;;;17.10;99.90;;;;;;5047100;28;20167;-85
2021/05/08 12:33:34;;;;;;;3.15;2.20;;;17.00;99.90;;;;;;5072730;28;20233;-86
2021/05/08 12:36:17;;;;;;;6.45;2.40;;;16.90;99.90;;;;;;5064185;28;20202;-87
2021/05/08 12:38:43;;;;;;;3.70;2.30;;;17.00;99.90;;;;;;5047152;28;20183;-86
2021/05/08 12:41:49;;;;;;;5.22;2.90;;;17.00;99.90;;;;;;5064691;28;20241;-85
2021/05/08 12:44:14;;;;;;;11.35;2.90;;;16.90;99.90;;;;;;5045909;28;20183;-86
2021/05/08 12:46:56;;;;;;;8.23;2.72;;;17.00;99.90;;;;;;5057549;28;20183;-86
2021/05/08 12:49:24;;;;;;;3.65;2.38;;;17.10;99.90;;;;;;5065238;28;20167;-87